KAPF/APF METAR and TAF weather

Enter ICAO airport designator
Station Type Date Time Source
KAPF METAR 2019/07/17 17:50 UTC NOAA

KAPF 171750Z 24008KT 10SM SCT039 A3011 RMK ASOS OTS.


Station Type Date Time Source
KAPF Decoded METAR 2019/07/17 17:50 UTC NOAA

NAPLES MUNICIPAL AIRPORT, FL, United States (KAPF) 26-09N 081-46W
Jul 17, 2019 - 01:50 PM EDT / 2019.07.17 1750 UTC
Wind: from the WSW (240 degrees) at 9 MPH (8 KT):0
Visibility: 10 mile(s):0
Sky conditions: partly cloudy
Pressure (altimeter): 30.11 in. Hg (1019 hPa)
ob: KAPF 171750Z 24008KT 10SM SCT039 A3011 RMK ASOS OTS.
cycle: 18

Station Type Date Time Source
KAPF TAF 2019/07/17 18:24 UTC NOAA

TAF KAPF 171721Z 1718/1818 14008KT P6SM FEW030 SCT250
FM171900 23010KT P6SM VCTS SCT025CB BKN050
FM180000 VRB06KT P6SM VCSH SCT025 BKN050
FM180300 VRB03KT P6SM FEW025 SCT050 BKN100
FM181400 14008KT P6SM FEW030 SCT250
FM181700 21010KT P6SM SCT030 SCT250

Example: see airport list